createdAt,value
2023-06-09T00:00:13.969Z,13.80
2023-06-09T00:02:45.319Z,13.71
2023-06-09T00:05:16.371Z,13.64
2023-06-09T00:07:48.974Z,13.62
2023-06-09T00:10:19.040Z,13.44
2023-06-09T00:12:49.536Z,13.47
2023-06-09T00:15:19.091Z,13.47
2023-06-09T00:17:50.956Z,13.49
2023-06-09T00:20:21.868Z,13.47
2023-06-09T00:22:50.731Z,13.48
2023-06-09T00:25:21.501Z,13.34
2023-06-09T00:27:50.462Z,13.37
2023-06-09T00:30:38.730Z,13.38
2023-06-09T00:32:56.338Z,13.39
2023-06-09T00:35:26.703Z,13.38
2023-06-09T00:37:57.121Z,13.36
2023-06-09T00:40:27.124Z,13.35
2023-06-09T00:42:57.309Z,13.37
2023-06-09T00:45:27.232Z,13.35
2023-06-09T00:47:57.724Z,13.32
2023-06-09T00:50:27.684Z,13.33
2023-06-09T00:52:58.618Z,13.21
2023-06-09T00:55:29.394Z,13.21
2023-06-09T00:58:03.092Z,13.22
2023-06-09T01:00:34.896Z,13.22
2023-06-09T01:03:05.275Z,13.20
2023-06-09T01:05:40.316Z,13.20
2023-06-09T01:08:24.632Z,13.22
2023-06-09T01:11:12.369Z,13.20
2023-06-09T01:14:08.992Z,13.18
2023-06-09T01:16:44.829Z,13.15
2023-06-09T01:19:17.476Z,13.14
2023-06-09T01:21:49.902Z,13.08
2023-06-09T01:24:47.420Z,13.05
2023-06-09T01:27:19.645Z,13.04
2023-06-09T01:29:52.817Z,13.00
2023-06-09T01:32:25.108Z,13.00
2023-06-09T01:34:56.365Z,12.98
2023-06-09T01:37:27.311Z,12.93
2023-06-09T01:39:56.397Z,12.89
2023-06-09T01:42:26.666Z,12.86
2023-06-09T01:44:56.268Z,12.84
2023-06-09T01:47:26.286Z,12.82
2023-06-09T01:50:02.463Z,12.79
2023-06-09T01:52:47.413Z,12.78
2023-06-09T01:55:23.034Z,12.73
2023-06-09T01:58:04.838Z,12.71
2023-06-09T02:00:35.483Z,12.68
2023-06-09T02:03:09.353Z,12.63
2023-06-09T02:05:40.093Z,12.57
2023-06-09T02:08:10.876Z,12.58
2023-06-09T02:10:42.029Z,12.52
2023-06-09T02:13:18.661Z,12.49
2023-06-09T02:15:50.012Z,12.43
2023-06-09T02:18:21.648Z,12.43
2023-06-09T02:20:52.169Z,12.43
2023-06-09T02:23:23.454Z,12.35
2023-06-09T02:25:53.749Z,12.34
2023-06-09T02:28:23.582Z,12.31
2023-06-09T02:30:53.896Z,12.28
2023-06-09T02:33:25.308Z,12.26
2023-06-09T02:35:55.669Z,12.26
2023-06-09T02:38:25.707Z,12.26
2023-06-09T02:40:55.629Z,12.26
2023-06-09T02:43:25.432Z,12.23
2023-06-09T02:45:55.504Z,12.27
2023-06-09T02:48:26.605Z,12.24
2023-06-09T02:50:56.466Z,12.22
2023-06-09T02:53:28.503Z,12.20
2023-06-09T02:55:59.251Z,12.18
2023-06-09T02:58:31.493Z,12.25
2023-06-09T03:01:02.714Z,12.26
2023-06-09T03:03:33.068Z,12.25
2023-06-09T03:06:03.316Z,12.29
2023-06-09T03:08:33.270Z,12.32
2023-06-09T03:11:03.162Z,12.35
2023-06-09T03:13:33.400Z,12.32
2023-06-09T03:16:04.889Z,12.31
2023-06-09T03:18:35.027Z,12.33
2023-06-09T03:21:06.221Z,12.35
2023-06-09T03:23:37.805Z,12.38
2023-06-09T03:26:08.142Z,12.43
2023-06-09T03:28:38.358Z,12.36
2023-06-09T03:31:08.562Z,12.27
2023-06-09T03:33:38.540Z,12.38
2023-06-09T03:36:09.831Z,12.44
2023-06-09T03:38:40.035Z,12.47
2023-06-09T03:41:09.743Z,12.55
2023-06-09T03:43:39.779Z,12.63
2023-06-09T03:46:09.985Z,12.69
2023-06-09T03:48:40.361Z,12.75
2023-06-09T03:51:10.210Z,12.90
2023-06-09T03:53:40.282Z,13.08
2023-06-09T03:56:10.307Z,13.27
2023-06-09T03:58:40.736Z,13.48
2023-06-09T04:01:12.149Z,13.75
2023-06-09T04:03:42.336Z,14.04
2023-06-09T04:06:12.063Z,14.35
2023-06-09T04:08:43.545Z,14.60
2023-06-09T04:11:14.231Z,14.84
2023-06-09T04:13:44.195Z,15.11
2023-06-09T04:16:13.854Z,15.10
2023-06-09T04:18:44.715Z,15.54
2023-06-09T04:21:15.377Z,15.89
2023-06-09T04:23:45.329Z,16.19
2023-06-09T04:26:15.851Z,16.32
2023-06-09T04:28:45.964Z,16.47
2023-06-09T04:31:17.813Z,16.62
2023-06-09T04:33:48.189Z,16.87
2023-06-09T04:36:18.457Z,17.21
2023-06-09T04:38:49.245Z,17.39
2023-06-09T04:41:19.474Z,17.81
2023-06-09T04:43:50.813Z,17.95
2023-06-09T04:46:23.223Z,18.14
2023-06-09T04:48:55.424Z,18.18
2023-06-09T04:51:25.390Z,18.08
2023-06-09T04:53:59.846Z,18.34
2023-06-09T04:56:30.207Z,18.71
2023-06-09T04:59:00.689Z,19.11
2023-06-09T05:01:30.679Z,19.55
2023-06-09T05:04:01.355Z,19.74
2023-06-09T05:06:31.676Z,19.93
2023-06-09T05:09:01.879Z,20.05
2023-06-09T05:11:32.026Z,20.13
2023-06-09T05:14:08.737Z,20.08
2023-06-09T05:16:40.109Z,19.76
2023-06-09T05:19:10.185Z,19.76
2023-06-09T05:21:43.686Z,20.03
2023-06-09T05:24:14.187Z,20.03
2023-06-09T05:26:43.647Z,20.06
2023-06-09T05:29:13.808Z,19.85
2023-06-09T05:31:56.179Z,19.55
2023-06-09T05:34:28.353Z,20.21
2023-06-09T05:36:59.241Z,20.46
2023-06-09T05:39:30.152Z,21.05
2023-06-09T05:42:00.234Z,21.29
2023-06-09T05:44:30.246Z,21.65
2023-06-09T05:47:00.117Z,21.53
2023-06-09T05:49:31.296Z,21.03
2023-06-09T05:52:00.159Z,21.38
2023-06-09T05:54:30.625Z,21.52
2023-06-09T05:57:00.450Z,21.29
2023-06-09T05:59:31.938Z,21.42
2023-06-09T06:02:02.325Z,21.48
2023-06-09T06:04:32.495Z,21.36
2023-06-09T06:07:02.265Z,21.36
2023-06-09T06:09:33.640Z,21.00
2023-06-09T06:12:04.575Z,20.46
2023-06-09T06:14:34.694Z,20.54
2023-06-09T06:17:04.642Z,20.34
2023-06-09T06:19:34.414Z,19.90
2023-06-09T06:22:05.120Z,19.90
2023-06-09T06:24:34.185Z,19.95
2023-06-09T06:27:03.956Z,19.95
2023-06-09T06:29:34.761Z,20.21
2023-06-09T06:32:03.938Z,20.41
2023-06-09T06:34:34.229Z,20.62
2023-06-09T06:37:04.189Z,20.77
2023-06-09T06:39:34.579Z,20.85
2023-06-09T06:42:04.709Z,20.86
2023-06-09T06:44:36.264Z,21.05
2023-06-09T06:47:07.286Z,21.01
2023-06-09T06:49:36.555Z,21.07
2023-06-09T06:52:09.875Z,21.22
2023-06-09T06:54:39.755Z,21.25
2023-06-09T06:57:09.343Z,21.23
2023-06-09T06:59:39.216Z,21.24
2023-06-09T07:02:10.787Z,21.36
2023-06-09T07:04:41.058Z,21.45
2023-06-09T07:07:10.925Z,21.54
2023-06-09T07:09:40.674Z,21.53
2023-06-09T07:12:12.335Z,21.68
2023-06-09T07:14:42.255Z,21.76
2023-06-09T07:17:12.371Z,21.89
2023-06-09T07:19:41.976Z,22.17
2023-06-09T07:22:12.069Z,22.13
2023-06-09T07:24:41.633Z,22.66
2023-06-09T07:27:11.491Z,22.73
2023-06-09T07:29:43.809Z,22.83
2023-06-09T07:32:13.906Z,22.80
2023-06-09T07:34:44.292Z,23.06
2023-06-09T07:37:14.657Z,22.94
2023-06-09T07:39:44.309Z,23.22
2023-06-09T07:42:14.125Z,22.83
2023-06-09T07:44:43.796Z,22.60
2023-06-09T07:47:13.632Z,22.73
2023-06-09T07:49:43.263Z,22.59
2023-06-09T07:52:23.801Z,22.20
2023-06-09T07:54:44.741Z,21.60
2023-06-09T07:57:14.686Z,21.60
2023-06-09T07:59:45.962Z,21.89
2023-06-09T08:02:17.144Z,21.86
2023-06-09T08:04:47.129Z,21.98
2023-06-09T08:07:16.994Z,21.67
2023-06-09T08:09:46.840Z,21.93
2023-06-09T08:12:16.733Z,22.12
2023-06-09T08:14:47.674Z,22.18
2023-06-09T08:17:17.337Z,22.78
2023-06-09T08:19:46.905Z,23.24
2023-06-09T08:22:16.857Z,24.02
2023-06-09T08:24:48.148Z,24.41
2023-06-09T08:27:18.168Z,24.89
2023-06-09T08:29:50.069Z,24.59
2023-06-09T08:32:20.019Z,24.86
2023-06-09T08:34:49.944Z,24.63
2023-06-09T08:37:20.310Z,24.27
2023-06-09T08:39:51.123Z,23.78
2023-06-09T08:42:26.257Z,23.23
2023-06-09T08:45:05.092Z,23.79
2023-06-09T08:47:35.755Z,23.68
2023-06-09T08:50:09.004Z,23.17
2023-06-09T08:52:39.857Z,23.05
2023-06-09T08:55:09.650Z,22.56
2023-06-09T08:57:42.814Z,22.94
2023-06-09T09:00:13.826Z,22.95
2023-06-09T09:02:44.858Z,22.47
2023-06-09T09:05:14.276Z,22.71
2023-06-09T09:07:45.722Z,22.75
2023-06-09T09:10:15.929Z,22.90
2023-06-09T09:12:52.981Z,22.89
2023-06-09T09:15:27.214Z,22.95
2023-06-09T09:17:58.751Z,23.00
2023-06-09T09:20:35.806Z,23.27
2023-06-09T09:23:07.090Z,23.19
2023-06-09T09:25:36.983Z,23.19
2023-06-09T09:28:12.662Z,23.11
2023-06-09T09:30:46.435Z,22.98
2023-06-09T09:33:25.224Z,22.99
2023-06-09T09:35:57.274Z,23.19
2023-06-09T09:38:30.020Z,23.11
2023-06-09T09:41:01.362Z,22.99
2023-06-09T09:43:31.897Z,23.08
2023-06-09T09:46:08.913Z,23.40
2023-06-09T09:48:39.929Z,23.63
2023-06-09T09:51:12.677Z,24.19
2023-06-09T09:53:48.487Z,24.23
2023-06-09T09:56:22.925Z,24.47
2023-06-09T09:58:55.931Z,24.88
2023-06-09T10:01:27.282Z,24.98
2023-06-09T10:03:58.739Z,24.89
2023-06-09T10:06:31.336Z,25.77
2023-06-09T10:09:01.562Z,25.28
2023-06-09T10:11:33.197Z,25.58
2023-06-09T10:14:03.314Z,25.14
2023-06-09T10:16:34.280Z,24.63
2023-06-09T10:19:03.252Z,24.36
2023-06-09T10:21:34.559Z,24.43
2023-06-09T10:24:07.299Z,24.49
2023-06-09T10:26:39.553Z,24.37
2023-06-09T10:29:10.831Z,24.37
2023-06-09T10:31:43.910Z,24.67
2023-06-09T10:34:16.614Z,24.56
2023-06-09T10:36:46.806Z,24.63
2023-06-09T10:39:25.881Z,24.40
2023-06-09T10:42:13.978Z,24.28
2023-06-09T10:44:58.728Z,23.81
2023-06-09T10:47:49.320Z,23.81
2023-06-09T10:50:31.005Z,23.73
2023-06-09T10:53:01.719Z,23.60
2023-06-09T10:55:31.960Z,23.53
2023-06-09T10:58:01.625Z,23.42
2023-06-09T11:00:34.452Z,23.57
2023-06-09T11:03:13.534Z,22.40
2023-06-09T11:05:45.869Z,22.40
2023-06-09T11:08:16.308Z,22.74
2023-06-09T11:10:47.714Z,23.21
2023-06-09T11:13:41.951Z,23.27
2023-06-09T11:16:11.766Z,23.47
2023-06-09T11:18:41.507Z,23.61
2023-06-09T11:21:20.688Z,23.68
2023-06-09T11:24:00.406Z,23.66
2023-06-09T11:26:31.414Z,23.59
2023-06-09T11:29:03.343Z,23.59
2023-06-09T11:31:49.924Z,23.28
2023-06-09T11:34:39.768Z,23.35
2023-06-09T11:37:10.643Z,22.77
2023-06-09T11:39:41.259Z,21.79
2023-06-09T11:42:11.112Z,20.98
2023-06-09T11:44:42.121Z,20.98
2023-06-09T11:47:32.239Z,20.58
2023-06-09T11:50:06.830Z,20.05
2023-06-09T11:52:37.076Z,19.25
2023-06-09T11:55:08.198Z,18.78
2023-06-09T11:57:38.987Z,18.56
2023-06-09T12:00:13.032Z,18.60
2023-06-09T12:02:50.045Z,18.83
2023-06-09T12:05:20.406Z,18.50
2023-06-09T12:07:52.893Z,18.56
2023-06-09T12:10:25.826Z,18.44
2023-06-09T12:12:58.512Z,18.51
2023-06-09T12:15:30.014Z,18.62
2023-06-09T12:18:03.750Z,18.52
2023-06-09T12:20:36.245Z,18.50
2023-06-09T12:23:13.987Z,18.24
2023-06-09T12:25:50.745Z,18.13
2023-06-09T12:28:29.418Z,18.18
2023-06-09T12:31:09.934Z,18.34
2023-06-09T12:33:40.233Z,18.57
2023-06-09T12:36:12.187Z,18.64
2023-06-09T12:38:47.321Z,18.62
2023-06-09T12:41:19.431Z,18.66
2023-06-09T12:43:56.094Z,18.65
2023-06-09T12:46:31.849Z,18.73
2023-06-09T12:49:06.984Z,18.76
2023-06-09T12:51:43.445Z,18.92
2023-06-09T12:54:14.785Z,19.05
2023-06-09T12:56:44.677Z,19.19
2023-06-09T12:59:14.554Z,19.20
2023-06-09T13:01:47.020Z,19.11
2023-06-09T13:04:18.620Z,19.35
2023-06-09T13:06:48.581Z,19.41
2023-06-09T13:09:18.500Z,19.25
2023-06-09T13:11:48.468Z,19.63
2023-06-09T13:14:18.405Z,19.77
2023-06-09T13:16:48.146Z,19.96
2023-06-09T13:19:18.096Z,20.19
2023-06-09T13:21:47.778Z,20.33
2023-06-09T13:24:18.256Z,20.61
2023-06-09T13:26:50.208Z,20.95
2023-06-09T13:29:22.208Z,20.95
2023-06-09T13:31:52.056Z,21.28
2023-06-09T13:34:22.010Z,21.41
2023-06-09T13:36:52.147Z,21.41
2023-06-09T13:39:21.794Z,21.50
2023-06-09T13:41:51.690Z,21.59
2023-06-09T13:44:22.209Z,21.14
2023-06-09T13:46:52.979Z,20.99
2023-06-09T13:49:22.994Z,21.40
2023-06-09T13:51:53.025Z,21.64
2023-06-09T13:54:22.940Z,21.60
2023-06-09T13:56:54.106Z,21.93
2023-06-09T13:59:23.705Z,21.93
2023-06-09T14:01:54.877Z,22.22
2023-06-09T14:04:25.592Z,22.09
2023-06-09T14:06:55.343Z,21.96
2023-06-09T14:09:25.942Z,22.41
2023-06-09T14:11:59.907Z,22.42
2023-06-09T14:14:27.523Z,22.42
2023-06-09T14:16:59.424Z,22.63
2023-06-09T14:19:30.521Z,22.76
2023-06-09T14:22:01.533Z,22.72
2023-06-09T14:24:31.485Z,22.25
2023-06-09T14:27:01.963Z,22.71
2023-06-09T14:29:33.924Z,22.64
2023-06-09T14:32:04.789Z,22.64
2023-06-09T14:34:34.718Z,22.85
2023-06-09T14:37:04.594Z,23.03
2023-06-09T14:39:35.735Z,23.09
2023-06-09T14:42:07.741Z,23.18
2023-06-09T14:44:39.376Z,23.27
2023-06-09T14:47:09.099Z,23.42
2023-06-09T14:49:38.675Z,23.34
2023-06-09T14:52:08.791Z,23.20
2023-06-09T14:54:38.415Z,23.23
2023-06-09T14:57:09.113Z,23.28
2023-06-09T14:59:38.699Z,22.73
2023-06-09T15:02:08.607Z,22.48
2023-06-09T15:04:38.387Z,22.35
2023-06-09T15:07:09.865Z,22.22
2023-06-09T15:09:39.712Z,22.22
2023-06-09T15:12:09.891Z,22.33
2023-06-09T15:14:39.802Z,22.27
2023-06-09T15:17:12.669Z,22.35
2023-06-09T15:19:49.766Z,22.35
2023-06-09T15:22:22.047Z,22.30
2023-06-09T15:24:58.592Z,22.43
2023-06-09T15:27:28.435Z,22.15
2023-06-09T15:29:58.580Z,22.36
2023-06-09T15:32:28.427Z,22.52
2023-06-09T15:34:58.736Z,22.52
2023-06-09T15:37:28.313Z,22.30
2023-06-09T15:39:58.168Z,22.36
2023-06-09T15:42:28.024Z,22.41
2023-06-09T15:44:58.135Z,22.41
2023-06-09T15:47:29.640Z,22.39
2023-06-09T15:50:01.695Z,22.43
2023-06-09T15:52:31.538Z,22.54
2023-06-09T15:55:01.407Z,22.65
2023-06-09T15:57:31.266Z,22.68
2023-06-09T16:00:01.553Z,22.59
2023-06-09T16:02:32.891Z,22.88
2023-06-09T16:05:02.940Z,22.82
2023-06-09T16:07:32.472Z,22.68
2023-06-09T16:10:04.075Z,22.65
2023-06-09T16:12:33.985Z,22.45
2023-06-09T16:15:04.191Z,22.45
2023-06-09T16:17:34.102Z,22.42
2023-06-09T16:20:04.310Z,22.39
2023-06-09T16:22:35.593Z,22.49
2023-06-09T16:25:07.322Z,22.63
2023-06-09T16:27:38.484Z,22.71
2023-06-09T16:30:10.822Z,22.70
2023-06-09T16:32:43.575Z,22.70
2023-06-09T16:35:13.404Z,22.78
2023-06-09T16:37:44.324Z,22.77
2023-06-09T16:40:14.329Z,22.73
2023-06-09T16:42:43.911Z,22.88
2023-06-09T16:45:13.557Z,22.83
2023-06-09T16:47:43.156Z,22.89
2023-06-09T16:50:13.055Z,22.95
2023-06-09T16:52:42.642Z,22.87
2023-06-09T16:55:13.158Z,22.79
2023-06-09T16:57:43.090Z,22.78
2023-06-09T17:00:13.733Z,22.81
2023-06-09T17:02:43.711Z,22.78
2023-06-09T17:05:13.292Z,22.81
2023-06-09T17:07:44.124Z,22.66
2023-06-09T17:10:14.017Z,22.59
2023-06-09T17:12:43.858Z,22.29
2023-06-09T17:15:14.480Z,22.12
2023-06-09T17:17:44.357Z,21.95
2023-06-09T17:20:15.684Z,21.44
2023-06-09T17:22:45.593Z,21.11
2023-06-09T17:25:16.686Z,20.73
2023-06-09T17:27:48.200Z,20.37
2023-06-09T17:30:19.140Z,20.18
2023-06-09T17:32:49.134Z,19.98
2023-06-09T17:35:18.985Z,19.59
2023-06-09T17:37:48.662Z,19.69
2023-06-09T17:40:19.600Z,19.38
2023-06-09T17:42:50.541Z,19.30
2023-06-09T17:45:20.486Z,18.77
2023-06-09T17:47:50.753Z,18.56
2023-06-09T17:50:20.537Z,18.56
2023-06-09T17:52:50.754Z,18.91
2023-06-09T17:55:20.604Z,18.71
2023-06-09T17:57:50.524Z,18.71
2023-06-09T18:04:03.346Z,18.69
2023-06-09T18:13:04.220Z,18.55
2023-06-09T18:15:35.061Z,18.29
2023-06-09T18:18:06.916Z,18.29
2023-06-09T18:20:51.139Z,18.38
2023-06-09T18:27:07.533Z,18.28
2023-06-09T18:29:37.728Z,18.24
2023-06-09T18:32:08.419Z,18.42
2023-06-09T18:34:37.230Z,18.37
2023-06-09T18:37:07.167Z,18.26
2023-06-09T18:39:37.181Z,18.17
2023-06-09T18:42:07.483Z,18.05
2023-06-09T18:44:39.118Z,17.90
2023-06-09T18:47:09.388Z,17.90
2023-06-09T18:49:39.584Z,18.04
2023-06-09T18:52:09.521Z,18.07
2023-06-09T18:54:39.545Z,18.11
2023-06-09T18:57:09.586Z,18.11
2023-06-09T18:59:39.197Z,18.08
2023-06-09T19:02:09.286Z,18.07
2023-06-09T19:04:38.849Z,18.09
2023-06-09T19:07:09.085Z,18.02
2023-06-09T19:09:39.192Z,17.97
2023-06-09T19:12:09.486Z,17.95
2023-06-09T19:14:40.298Z,17.90
2023-06-09T19:17:09.291Z,17.80
2023-06-09T19:19:38.833Z,17.68
2023-06-09T19:22:09.112Z,17.68
2023-06-09T19:24:38.665Z,17.57
2023-06-09T19:27:08.463Z,17.59
2023-06-09T19:29:38.300Z,17.63
2023-06-09T19:32:08.428Z,17.63
2023-06-09T19:34:39.369Z,17.54
2023-06-09T19:37:09.306Z,17.35
2023-06-09T19:39:39.149Z,17.35
2023-06-09T19:42:09.049Z,17.41
2023-06-09T19:44:38.961Z,17.35
2023-06-09T19:47:08.904Z,17.35
2023-06-09T19:49:38.508Z,17.39
2023-06-09T19:52:08.541Z,17.42
2023-06-09T19:54:38.079Z,17.43
2023-06-09T19:57:08.569Z,17.34
2023-06-09T19:59:38.388Z,17.22
2023-06-09T20:02:08.108Z,17.23
2023-06-09T20:04:38.111Z,17.25
2023-06-09T20:07:07.721Z,17.29
2023-06-09T20:09:37.922Z,17.33
2023-06-09T20:12:08.274Z,17.41
2023-06-09T20:14:38.516Z,17.39
2023-06-09T20:17:08.292Z,17.40
2023-06-09T20:19:39.510Z,17.32
2023-06-09T20:22:10.898Z,17.34
2023-06-09T20:24:39.767Z,17.31
2023-06-09T20:27:09.551Z,17.30
2023-06-09T20:29:39.628Z,17.32
2023-06-09T20:32:09.510Z,17.30
2023-06-09T20:34:39.383Z,17.13
2023-06-09T20:37:09.268Z,17.13
2023-06-09T20:39:39.215Z,17.21
2023-06-09T20:42:10.432Z,17.19
2023-06-09T20:44:39.976Z,17.18
2023-06-09T20:47:10.151Z,17.09
2023-06-09T20:49:39.891Z,17.08
2023-06-09T20:52:10.243Z,17.03
2023-06-09T20:54:40.576Z,16.99
2023-06-09T20:57:10.951Z,16.70
2023-06-09T20:59:41.560Z,16.74
2023-06-09T21:02:11.866Z,16.75
2023-06-09T21:04:43.632Z,16.72
2023-06-09T21:07:13.619Z,16.70
2023-06-09T21:09:43.436Z,16.71
2023-06-09T21:12:13.129Z,16.74
2023-06-09T21:14:42.980Z,16.45
2023-06-09T21:17:12.831Z,16.45
2023-06-09T21:19:44.286Z,16.44
2023-06-09T21:22:14.183Z,16.32
2023-06-09T21:24:45.117Z,16.23
2023-06-09T21:27:14.680Z,16.23
2023-06-09T21:29:44.512Z,16.20
2023-06-09T21:32:14.077Z,16.02
2023-06-09T21:34:45.423Z,15.87
2023-06-09T21:37:15.057Z,15.87
2023-06-09T21:39:45.299Z,15.87
2023-06-09T21:42:15.725Z,15.79
2023-06-09T21:44:46.106Z,15.71
2023-06-09T21:47:15.967Z,15.65
2023-06-09T21:49:46.634Z,15.57
2023-06-09T21:52:16.808Z,15.47
2023-06-09T21:54:46.659Z,15.53
2023-06-09T21:57:16.381Z,15.38
2023-06-09T21:59:46.321Z,15.40
2023-06-09T22:02:16.352Z,15.34
2023-06-09T22:04:46.267Z,15.16
2023-06-09T22:07:15.927Z,15.15
2023-06-09T22:09:45.810Z,15.14
2023-06-09T22:12:18.288Z,15.09
2023-06-09T22:14:48.916Z,15.04
2023-06-09T22:17:20.166Z,14.97
2023-06-09T22:19:51.210Z,14.96
2023-06-09T22:22:21.091Z,14.94
2023-06-09T22:24:50.928Z,14.92
2023-06-09T22:27:20.842Z,14.88
2023-06-09T22:29:51.219Z,14.88
2023-06-09T22:32:21.966Z,14.86
2023-06-09T22:34:51.550Z,14.87
2023-06-09T22:37:21.400Z,14.84
2023-06-09T22:39:51.605Z,14.77
2023-06-09T22:42:21.567Z,14.74
2023-06-09T22:44:51.413Z,14.72
2023-06-09T22:47:21.059Z,14.66
2023-06-09T22:50:09.660Z,14.62
2023-06-09T22:52:45.846Z,14.58
2023-06-09T22:55:17.450Z,14.56
2023-06-09T22:57:50.434Z,14.50
2023-06-09T23:00:24.465Z,14.50
2023-06-09T23:02:54.739Z,14.45
2023-06-09T23:05:32.257Z,14.41
2023-06-09T23:08:02.377Z,14.32
2023-06-09T23:10:32.217Z,14.18
2023-06-09T23:13:02.429Z,14.18
2023-06-09T23:15:33.089Z,14.27
2023-06-09T23:18:03.902Z,14.22
2023-06-09T23:20:35.579Z,14.15
2023-06-09T23:23:08.166Z,14.14
2023-06-09T23:25:38.092Z,14.06
2023-06-09T23:28:07.870Z,14.02
2023-06-09T23:30:37.998Z,13.86
2023-06-09T23:33:07.818Z,13.86
2023-06-09T23:35:37.773Z,13.92
2023-06-09T23:38:07.395Z,13.89
2023-06-09T23:40:37.289Z,13.85
2023-06-09T23:43:07.179Z,13.83
2023-06-09T23:45:37.417Z,13.79
2023-06-09T23:48:07.413Z,13.76
2023-06-09T23:50:37.116Z,13.73
2023-06-09T23:53:09.363Z,13.66
2023-06-09T23:55:39.505Z,13.66
2023-06-09T23:58:09.060Z,13.69
